sensor_id;sensor_type;location;lat;lon;timestamp;temperature;humidity
56240;DHT22;42154;51.992;5.896;2023-10-09T00:00:53;14.70;99.90
56240;DHT22;42154;51.992;5.896;2023-10-09T00:03:27;14.70;99.90
56240;DHT22;42154;51.992;5.896;2023-10-09T00:05:53;14.70;99.90
56240;DHT22;42154;51.992;5.896;2023-10-09T00:08:20;14.70;99.90
56240;DHT22;42154;51.992;5.896;2023-10-09T00:11:00;14.70;99.90
56240;DHT22;42154;51.992;5.896;2023-10-09T00:13:43;14.70;99.90
56240;DHT22;42154;51.992;5.896;2023-10-09T00:16:17;14.80;99.90
56240;DHT22;42154;51.992;5.896;2023-10-09T00:18:46;14.80;99.90
56240;DHT22;42154;51.992;5.896;2023-10-09T00:21:19;14.80;99.90
56240;DHT22;42154;51.992;5.896;2023-10-09T00:23:49;14.80;99.90
56240;DHT22;42154;51.992;5.896;2023-10-09T00:26:25;14.80;99.90
56240;DHT22;42154;51.992;5.896;2023-10-09T00:28:52;14.90;99.90
56240;DHT22;42154;51.992;5.896;2023-10-09T00:31:18;14.90;99.90
56240;DHT22;42154;51.992;5.896;2023-10-09T00:33:59;14.90;99.90
56240;DHT22;42154;51.992;5.896;2023-10-09T00:36:32;14.90;99.90
56240;DHT22;42154;51.992;5.896;2023-10-09T00:38:58;14.90;99.90
56240;DHT22;42154;51.992;5.896;2023-10-09T00:41:35;14.90;99.90
56240;DHT22;42154;51.992;5.896;2023-10-09T00:44:01;14.90;99.90
56240;DHT22;42154;51.992;5.896;2023-10-09T00:46:33;14.90;99.90
56240;DHT22;42154;51.992;5.896;2023-10-09T00:49:00;15.00;99.90
56240;DHT22;42154;51.992;5.896;2023-10-09T00:51:27;15.00;99.90
56240;DHT22;42154;51.992;5.896;2023-10-09T00:54:01;15.00;99.90
56240;DHT22;42154;51.992;5.896;2023-10-09T00:56:34;15.10;99.90
56240;DHT22;42154;51.992;5.896;2023-10-09T00:59:05;15.10;99.90
56240;DHT22;42154;51.992;5.896;2023-10-09T01:01:36;15.10;99.90
56240;DHT22;42154;51.992;5.896;2023-10-09T01:04:15;15.10;99.90
56240;DHT22;42154;51.992;5.896;2023-10-09T01:06:45;15.10;99.90
56240;DHT22;42154;51.992;5.896;2023-10-09T01:09:15;15.00;99.90
56240;DHT22;42154;51.992;5.896;2023-10-09T01:11:42;15.10;99.90
56240;DHT22;42154;51.992;5.896;2023-10-09T01:14:17;15.10;99.90
56240;DHT22;42154;51.992;5.896;2023-10-09T01:16:46;15.10;99.90
56240;DHT22;42154;51.992;5.896;2023-10-09T01:19:13;15.10;99.90
56240;DHT22;42154;51.992;5.896;2023-10-09T01:21:45;15.20;99.90
56240;DHT22;42154;51.992;5.896;2023-10-09T01:24:11;15.20;99.90
56240;DHT22;42154;51.992;5.896;2023-10-09T01:26:41;15.20;99.90
56240;DHT22;42154;51.992;5.896;2023-10-09T01:29:14;15.20;99.90
56240;DHT22;42154;51.992;5.896;2023-10-09T01:31:41;15.20;99.90
56240;DHT22;42154;51.992;5.896;2023-10-09T01:34:10;15.20;99.90
56240;DHT22;42154;51.992;5.896;2023-10-09T01:36:38;15.20;99.90
56240;DHT22;42154;51.992;5.896;2023-10-09T01:39:05;15.30;99.90
56240;DHT22;42154;51.992;5.896;2023-10-09T01:41:57;15.30;99.90
56240;DHT22;42154;51.992;5.896;2023-10-09T01:44:28;15.30;99.90
56240;DHT22;42154;51.992;5.896;2023-10-09T01:47:04;15.30;99.90
56240;DHT22;42154;51.992;5.896;2023-10-09T01:49:36;15.30;99.90
56240;DHT22;42154;51.992;5.896;2023-10-09T01:52:07;15.40;99.90
56240;DHT22;42154;51.992;5.896;2023-10-09T01:54:36;15.40;99.90
56240;DHT22;42154;51.992;5.896;2023-10-09T01:57:07;15.40;99.90
56240;DHT22;42154;51.992;5.896;2023-10-09T01:59:40;15.50;99.90
56240;DHT22;42154;51.992;5.896;2023-10-09T02:02:37;15.50;99.90
56240;DHT22;42154;51.992;5.896;2023-10-09T02:05:05;15.50;99.90
56240;DHT22;42154;51.992;5.896;2023-10-09T02:07:41;15.50;99.90
56240;DHT22;42154;51.992;5.896;2023-10-09T02:10:11;15.60;99.90
56240;DHT22;42154;51.992;5.896;2023-10-09T02:13:04;15.60;99.90
56240;DHT22;42154;51.992;5.896;2023-10-09T02:15:37;15.60;99.90
56240;DHT22;42154;51.992;5.896;2023-10-09T02:23:28;15.70;99.90
56240;DHT22;42154;51.992;5.896;2023-10-09T02:26:17;15.70;99.90
56240;DHT22;42154;51.992;5.896;2023-10-09T02:28:53;15.70;99.90
56240;DHT22;42154;51.992;5.896;2023-10-09T02:31:26;15.70;99.90
56240;DHT22;42154;51.992;5.896;2023-10-09T02:33:54;15.70;99.90
56240;DHT22;42154;51.992;5.896;2023-10-09T02:36:24;15.70;99.90
56240;DHT22;42154;51.992;5.896;2023-10-09T02:38:50;15.70;99.90
56240;DHT22;42154;51.992;5.896;2023-10-09T02:41:19;15.70;99.90
56240;DHT22;42154;51.992;5.896;2023-10-09T02:43:48;15.70;99.90
56240;DHT22;42154;51.992;5.896;2023-10-09T02:46:21;15.70;99.90
56240;DHT22;42154;51.992;5.896;2023-10-09T02:48:55;15.70;99.90
56240;DHT22;42154;51.992;5.896;2023-10-09T02:51:26;15.70;99.90
56240;DHT22;42154;51.992;5.896;2023-10-09T02:53:56;15.70;99.90
56240;DHT22;42154;51.992;5.896;2023-10-09T02:56:26;15.70;99.90
56240;DHT22;42154;51.992;5.896;2023-10-09T02:59:13;15.70;99.90
56240;DHT22;42154;51.992;5.896;2023-10-09T03:01:40;15.70;99.90
56240;DHT22;42154;51.992;5.896;2023-10-09T03:04:06;15.70;99.90
56240;DHT22;42154;51.992;5.896;2023-10-09T03:06:36;15.70;99.90
56240;DHT22;42154;51.992;5.896;2023-10-09T03:09:09;15.70;99.90
56240;DHT22;42154;51.992;5.896;2023-10-09T03:11:51;15.70;99.90
56240;DHT22;42154;51.992;5.896;2023-10-09T03:14:22;15.70;99.90
56240;DHT22;42154;51.992;5.896;2023-10-09T03:16:58;15.70;99.90
56240;DHT22;42154;51.992;5.896;2023-10-09T03:19:30;15.70;99.90
56240;DHT22;42154;51.992;5.896;2023-10-09T03:21:56;15.70;99.90
56240;DHT22;42154;51.992;5.896;2023-10-09T03:24:27;15.70;99.90
56240;DHT22;42154;51.992;5.896;2023-10-09T03:26:53;15.70;99.90
56240;DHT22;42154;51.992;5.896;2023-10-09T03:29:24;15.70;99.90
56240;DHT22;42154;51.992;5.896;2023-10-09T03:31:50;15.70;99.90
56240;DHT22;42154;51.992;5.896;2023-10-09T03:34:17;15.70;99.90
56240;DHT22;42154;51.992;5.896;2023-10-09T03:36:45;15.70;99.90
56240;DHT22;42154;51.992;5.896;2023-10-09T03:39:11;15.70;99.90
56240;DHT22;42154;51.992;5.896;2023-10-09T03:41:56;15.70;99.90
56240;DHT22;42154;51.992;5.896;2023-10-09T03:44:24;15.70;99.90
56240;DHT22;42154;51.992;5.896;2023-10-09T03:46:54;15.70;99.90
56240;DHT22;42154;51.992;5.896;2023-10-09T03:49:19;15.70;99.90
56240;DHT22;42154;51.992;5.896;2023-10-09T03:51:50;15.70;99.90
56240;DHT22;42154;51.992;5.896;2023-10-09T03:54:16;15.70;99.90
56240;DHT22;42154;51.992;5.896;2023-10-09T03:56:49;15.70;99.90
56240;DHT22;42154;51.992;5.896;2023-10-09T03:59:18;15.70;99.90
56240;DHT22;42154;51.992;5.896;2023-10-09T04:01:48;15.80;99.90
56240;DHT22;42154;51.992;5.896;2023-10-09T04:04:19;15.70;99.90
56240;DHT22;42154;51.992;5.896;2023-10-09T04:06:49;15.70;99.90
56240;DHT22;42154;51.992;5.896;2023-10-09T04:09:17;15.70;99.90
56240;DHT22;42154;51.992;5.896;2023-10-09T04:11:50;15.70;99.90
56240;DHT22;42154;51.992;5.896;2023-10-09T04:14:25;15.70;99.90
56240;DHT22;42154;51.992;5.896;2023-10-09T04:17:00;15.80;99.90
56240;DHT22;42154;51.992;5.896;2023-10-09T04:19:52;15.70;99.90
56240;DHT22;42154;51.992;5.896;2023-10-09T04:22:37;15.70;99.90
56240;DHT22;42154;51.992;5.896;2023-10-09T04:25:06;15.80;99.90
56240;DHT22;42154;51.992;5.896;2023-10-09T04:27:54;15.80;99.90
56240;DHT22;42154;51.992;5.896;2023-10-09T04:30:38;15.90;99.90
56240;DHT22;42154;51.992;5.896;2023-10-09T04:33:14;15.90;99.90
56240;DHT22;42154;51.992;5.896;2023-10-09T04:36:02;16.00;99.90
56240;DHT22;42154;51.992;5.896;2023-10-09T04:38:47;16.00;99.90
56240;DHT22;42154;51.992;5.896;2023-10-09T04:41:32;16.00;99.90
56240;DHT22;42154;51.992;5.896;2023-10-09T04:44:06;16.00;99.90
56240;DHT22;42154;51.992;5.896;2023-10-09T04:46:41;16.00;99.90
56240;DHT22;42154;51.992;5.896;2023-10-09T04:49:10;16.00;99.90
56240;DHT22;42154;51.992;5.896;2023-10-09T04:51:54;16.10;99.90
56240;DHT22;42154;51.992;5.896;2023-10-09T04:54:44;16.10;99.90
56240;DHT22;42154;51.992;5.896;2023-10-09T04:57:51;16.10;99.90
56240;DHT22;42154;51.992;5.896;2023-10-09T05:00:39;16.10;99.90
56240;DHT22;42154;51.992;5.896;2023-10-09T05:03:07;16.10;99.90
56240;DHT22;42154;51.992;5.896;2023-10-09T05:05:33;16.20;99.90
56240;DHT22;42154;51.992;5.896;2023-10-09T05:08:09;16.20;99.90
56240;DHT22;42154;51.992;5.896;2023-10-09T05:13:36;16.20;99.90
56240;DHT22;42154;51.992;5.896;2023-10-09T05:18:39;16.20;99.90
56240;DHT22;42154;51.992;5.896;2023-10-09T05:21:08;16.20;99.90
56240;DHT22;42154;51.992;5.896;2023-10-09T05:24:12;16.20;99.90
56240;DHT22;42154;51.992;5.896;2023-10-09T05:29:10;16.20;99.90
56240;DHT22;42154;51.992;5.896;2023-10-09T05:31:50;16.20;99.90
56240;DHT22;42154;51.992;5.896;2023-10-09T05:34:23;16.30;99.90
56240;DHT22;42154;51.992;5.896;2023-10-09T05:37:03;16.30;99.90
56240;DHT22;42154;51.992;5.896;2023-10-09T05:39:47;16.30;99.90
56240;DHT22;42154;51.992;5.896;2023-10-09T05:42:25;16.30;99.90
56240;DHT22;42154;51.992;5.896;2023-10-09T05:45:09;16.30;99.90
56240;DHT22;42154;51.992;5.896;2023-10-09T05:47:54;16.30;99.90
56240;DHT22;42154;51.992;5.896;2023-10-09T05:50:24;16.30;99.90
56240;DHT22;42154;51.992;5.896;2023-10-09T05:52:55;16.30;99.90
56240;DHT22;42154;51.992;5.896;2023-10-09T05:55:24;16.30;99.90
56240;DHT22;42154;51.992;5.896;2023-10-09T05:58:09;16.30;99.90
56240;DHT22;42154;51.992;5.896;2023-10-09T06:00:35;16.20;99.90
56240;DHT22;42154;51.992;5.896;2023-10-09T06:03:19;16.30;99.90
56240;DHT22;42154;51.992;5.896;2023-10-09T06:05:51;16.30;99.90
56240;DHT22;42154;51.992;5.896;2023-10-09T06:08:29;16.40;99.90
56240;DHT22;42154;51.992;5.896;2023-10-09T06:11:08;16.40;99.90
56240;DHT22;42154;51.992;5.896;2023-10-09T06:13:53;16.40;99.90
56240;DHT22;42154;51.992;5.896;2023-10-09T06:16:39;16.40;99.90
56240;DHT22;42154;51.992;5.896;2023-10-09T06:19:09;16.40;99.90
56240;DHT22;42154;51.992;5.896;2023-10-09T06:21:40;16.40;99.90
56240;DHT22;42154;51.992;5.896;2023-10-09T06:24:24;16.40;99.90
56240;DHT22;42154;51.992;5.896;2023-10-09T06:26:51;16.50;99.90
56240;DHT22;42154;51.992;5.896;2023-10-09T06:29:38;16.50;99.90
56240;DHT22;42154;51.992;5.896;2023-10-09T06:32:25;16.50;99.90
56240;DHT22;42154;51.992;5.896;2023-10-09T06:34:57;16.50;99.90
56240;DHT22;42154;51.992;5.896;2023-10-09T06:37:44;16.60;99.90
56240;DHT22;42154;51.992;5.896;2023-10-09T06:40:36;16.60;99.90
56240;DHT22;42154;51.992;5.896;2023-10-09T06:43:06;16.60;99.90
56240;DHT22;42154;51.992;5.896;2023-10-09T06:45:38;16.60;99.90
56240;DHT22;42154;51.992;5.896;2023-10-09T06:48:13;16.60;99.90
56240;DHT22;42154;51.992;5.896;2023-10-09T06:51:01;16.60;99.90
56240;DHT22;42154;51.992;5.896;2023-10-09T06:53:54;16.60;99.90
56240;DHT22;42154;51.992;5.896;2023-10-09T06:59:09;16.60;99.90
56240;DHT22;42154;51.992;5.896;2023-10-09T07:01:51;16.60;99.90
56240;DHT22;42154;51.992;5.896;2023-10-09T07:04:37;16.60;99.90
56240;DHT22;42154;51.992;5.896;2023-10-09T07:07:03;16.60;99.90
56240;DHT22;42154;51.992;5.896;2023-10-09T07:09:50;16.60;99.90
56240;DHT22;42154;51.992;5.896;2023-10-09T07:12:34;16.70;99.90
56240;DHT22;42154;51.992;5.896;2023-10-09T07:15:08;16.70;99.90
56240;DHT22;42154;51.992;5.896;2023-10-09T07:17:34;16.70;99.90
56240;DHT22;42154;51.992;5.896;2023-10-09T07:20:00;16.70;99.90
56240;DHT22;42154;51.992;5.896;2023-10-09T07:22:39;16.80;99.90
56240;DHT22;42154;51.992;5.896;2023-10-09T07:25:22;16.70;99.90
56240;DHT22;42154;51.992;5.896;2023-10-09T07:28:08;16.80;99.90
56240;DHT22;42154;51.992;5.896;2023-10-09T07:30:52;16.80;99.90
56240;DHT22;42154;51.992;5.896;2023-10-09T07:33:23;16.90;99.90
56240;DHT22;42154;51.992;5.896;2023-10-09T07:36:01;16.80;99.90
56240;DHT22;42154;51.992;5.896;2023-10-09T07:38:31;16.80;99.90
56240;DHT22;42154;51.992;5.896;2023-10-09T07:41:04;16.80;99.90
56240;DHT22;42154;51.992;5.896;2023-10-09T07:43:33;16.90;99.90
56240;DHT22;42154;51.992;5.896;2023-10-09T07:46:12;16.90;99.90
56240;DHT22;42154;51.992;5.896;2023-10-09T07:49:01;16.90;99.90
56240;DHT22;42154;51.992;5.896;2023-10-09T07:51:35;16.90;99.90
56240;DHT22;42154;51.992;5.896;2023-10-09T07:54:01;17.00;99.90
56240;DHT22;42154;51.992;5.896;2023-10-09T07:56:40;17.00;99.90
56240;DHT22;42154;51.992;5.896;2023-10-09T07:59:15;17.10;99.90
56240;DHT22;42154;51.992;5.896;2023-10-09T08:04:23;17.10;99.90
56240;DHT22;42154;51.992;5.896;2023-10-09T08:07:14;17.10;99.90
56240;DHT22;42154;51.992;5.896;2023-10-09T08:09:54;17.10;99.90
56240;DHT22;42154;51.992;5.896;2023-10-09T08:12:38;17.10;99.90
56240;DHT22;42154;51.992;5.896;2023-10-09T08:15:23;17.20;99.90
56240;DHT22;42154;51.992;5.896;2023-10-09T08:17:57;17.30;99.90
56240;DHT22;42154;51.992;5.896;2023-10-09T08:20:30;17.30;99.90
56240;DHT22;42154;51.992;5.896;2023-10-09T08:23:15;17.40;99.90
56240;DHT22;42154;51.992;5.896;2023-10-09T08:26:15;17.50;99.90
56240;DHT22;42154;51.992;5.896;2023-10-09T08:28:53;17.60;99.90
56240;DHT22;42154;51.992;5.896;2023-10-09T08:31:20;17.60;99.90
56240;DHT22;42154;51.992;5.896;2023-10-09T08:34:03;17.70;99.90
56240;DHT22;42154;51.992;5.896;2023-10-09T08:36:29;17.70;99.90
56240;DHT22;42154;51.992;5.896;2023-10-09T08:39:02;17.70;99.90
56240;DHT22;42154;51.992;5.896;2023-10-09T08:41:42;17.80;99.90
56240;DHT22;42154;51.992;5.896;2023-10-09T08:44:12;17.80;99.90
56240;DHT22;42154;51.992;5.896;2023-10-09T08:46:41;17.80;99.90
56240;DHT22;42154;51.992;5.896;2023-10-09T08:49:08;17.80;99.90
56240;DHT22;42154;51.992;5.896;2023-10-09T08:51:37;17.90;99.90
56240;DHT22;42154;51.992;5.896;2023-10-09T08:54:03;17.90;99.90
56240;DHT22;42154;51.992;5.896;2023-10-09T08:56:30;18.00;99.90
56240;DHT22;42154;51.992;5.896;2023-10-09T08:58:57;18.00;99.90
56240;DHT22;42154;51.992;5.896;2023-10-09T09:01:23;18.10;99.90
56240;DHT22;42154;51.992;5.896;2023-10-09T09:03:51;18.10;99.90
56240;DHT22;42154;51.992;5.896;2023-10-09T09:06:21;18.20;99.90
56240;DHT22;42154;51.992;5.896;2023-10-09T09:08:47;18.30;99.90
56240;DHT22;42154;51.992;5.896;2023-10-09T09:11:16;18.30;99.90
56240;DHT22;42154;51.992;5.896;2023-10-09T09:14:01;18.40;99.90
56240;DHT22;42154;51.992;5.896;2023-10-09T09:16:32;18.50;99.90
56240;DHT22;42154;51.992;5.896;2023-10-09T09:19:05;18.50;99.90
56240;DHT22;42154;51.992;5.896;2023-10-09T09:21:38;18.50;99.90
56240;DHT22;42154;51.992;5.896;2023-10-09T09:24:12;18.60;99.90
56240;DHT22;42154;51.992;5.896;2023-10-09T09:26:47;18.70;99.90
56240;DHT22;42154;51.992;5.896;2023-10-09T09:29:38;18.70;99.90
56240;DHT22;42154;51.992;5.896;2023-10-09T09:32:05;18.80;99.90
56240;DHT22;42154;51.992;5.896;2023-10-09T09:34:48;18.80;99.90
56240;DHT22;42154;51.992;5.896;2023-10-09T09:37:21;18.90;99.90
56240;DHT22;42154;51.992;5.896;2023-10-09T09:39:47;19.00;99.90
56240;DHT22;42154;51.992;5.896;2023-10-09T09:42:17;19.00;99.90
56240;DHT22;42154;51.992;5.896;2023-10-09T09:44:51;19.10;99.90
56240;DHT22;42154;51.992;5.896;2023-10-09T09:47:17;19.20;99.90
56240;DHT22;42154;51.992;5.896;2023-10-09T09:49:51;19.30;99.90
56240;DHT22;42154;51.992;5.896;2023-10-09T09:52:31;19.30;99.90
56240;DHT22;42154;51.992;5.896;2023-10-09T09:55:10;19.40;99.90
56240;DHT22;42154;51.992;5.896;2023-10-09T09:57:40;19.50;99.90
56240;DHT22;42154;51.992;5.896;2023-10-09T10:00:09;19.50;99.90
56240;DHT22;42154;51.992;5.896;2023-10-09T10:02:58;19.60;99.90
56240;DHT22;42154;51.992;5.896;2023-10-09T10:05:27;19.60;99.90
56240;DHT22;42154;51.992;5.896;2023-10-09T10:07:57;19.70;99.90
56240;DHT22;42154;51.992;5.896;2023-10-09T10:10:34;19.70;99.90
56240;DHT22;42154;51.992;5.896;2023-10-09T10:13:03;19.80;99.90
56240;DHT22;42154;51.992;5.896;2023-10-09T10:18:24;19.80;99.90
56240;DHT22;42154;51.992;5.896;2023-10-09T10:23:42;19.90;99.90
56240;DHT22;42154;51.992;5.896;2023-10-09T10:26:22;20.00;99.90
56240;DHT22;42154;51.992;5.896;2023-10-09T10:29:17;20.00;99.90
56240;DHT22;42154;51.992;5.896;2023-10-09T10:31:59;20.10;99.90
56240;DHT22;42154;51.992;5.896;2023-10-09T10:37:12;20.20;99.90
56240;DHT22;42154;51.992;5.896;2023-10-09T10:39:51;20.20;99.90
56240;DHT22;42154;51.992;5.896;2023-10-09T10:42:25;20.20;99.90
56240;DHT22;42154;51.992;5.896;2023-10-09T10:45:18;20.20;99.90
56240;DHT22;42154;51.992;5.896;2023-10-09T10:48:09;20.30;99.90
56240;DHT22;42154;51.992;5.896;2023-10-09T10:50:56;20.30;99.90
56240;DHT22;42154;51.992;5.896;2023-10-09T10:53:23;20.40;99.90
56240;DHT22;42154;51.992;5.896;2023-10-09T10:56:01;20.40;99.90
56240;DHT22;42154;51.992;5.896;2023-10-09T10:58:42;20.50;99.90
56240;DHT22;42154;51.992;5.896;2023-10-09T11:01:35;20.60;99.90
56240;DHT22;42154;51.992;5.896;2023-10-09T11:04:23;20.70;99.90
56240;DHT22;42154;51.992;5.896;2023-10-09T11:06:58;20.70;99.90
56240;DHT22;42154;51.992;5.896;2023-10-09T11:09:58;20.80;99.90
56240;DHT22;42154;51.992;5.896;2023-10-09T11:12:31;20.90;99.90
56240;DHT22;42154;51.992;5.896;2023-10-09T11:15:15;20.90;99.90
56240;DHT22;42154;51.992;5.896;2023-10-09T11:18:05;20.90;99.90
56240;DHT22;42154;51.992;5.896;2023-10-09T11:20:37;21.00;99.90
56240;DHT22;42154;51.992;5.896;2023-10-09T11:23:05;21.00;99.90
56240;DHT22;42154;51.992;5.896;2023-10-09T11:25:38;21.00;99.90
56240;DHT22;42154;51.992;5.896;2023-10-09T11:28:17;21.00;99.90
56240;DHT22;42154;51.992;5.896;2023-10-09T11:31:15;21.10;99.90
56240;DHT22;42154;51.992;5.896;2023-10-09T11:33:59;21.10;99.90
56240;DHT22;42154;51.992;5.896;2023-10-09T11:36:27;21.10;99.90
56240;DHT22;42154;51.992;5.896;2023-10-09T11:39:00;21.20;99.90
56240;DHT22;42154;51.992;5.896;2023-10-09T11:41:40;21.30;99.90
56240;DHT22;42154;51.992;5.896;2023-10-09T11:44:10;21.40;99.90
56240;DHT22;42154;51.992;5.896;2023-10-09T11:47:01;21.50;99.90
56240;DHT22;42154;51.992;5.896;2023-10-09T11:49:49;21.60;99.90
56240;DHT22;42154;51.992;5.896;2023-10-09T11:52:22;21.60;99.90
56240;DHT22;42154;51.992;5.896;2023-10-09T11:55:00;21.70;99.90
56240;DHT22;42154;51.992;5.896;2023-10-09T11:57:26;21.70;99.90
56240;DHT22;42154;51.992;5.896;2023-10-09T12:00:00;21.70;99.90
56240;DHT22;42154;51.992;5.896;2023-10-09T12:02:26;21.80;99.90
56240;DHT22;42154;51.992;5.896;2023-10-09T12:04:53;21.80;99.90
56240;DHT22;42154;51.992;5.896;2023-10-09T12:07:22;21.80;99.90
56240;DHT22;42154;51.992;5.896;2023-10-09T12:09:48;21.90;99.90
56240;DHT22;42154;51.992;5.896;2023-10-09T12:12:14;21.90;99.90
56240;DHT22;42154;51.992;5.896;2023-10-09T12:14:40;22.00;99.90
56240;DHT22;42154;51.992;5.896;2023-10-09T12:17:07;22.00;99.90
56240;DHT22;42154;51.992;5.896;2023-10-09T12:19:37;22.00;99.90
56240;DHT22;42154;51.992;5.896;2023-10-09T12:22:05;22.10;99.90
56240;DHT22;42154;51.992;5.896;2023-10-09T12:24:32;22.00;99.90
56240;DHT22;42154;51.992;5.896;2023-10-09T12:26:58;22.00;99.90
56240;DHT22;42154;51.992;5.896;2023-10-09T12:29:25;22.00;99.90
56240;DHT22;42154;51.992;5.896;2023-10-09T12:31:56;22.00;99.90
56240;DHT22;42154;51.992;5.896;2023-10-09T12:34:25;22.00;99.90
56240;DHT22;42154;51.992;5.896;2023-10-09T12:36:54;22.00;99.90
56240;DHT22;42154;51.992;5.896;2023-10-09T12:39:21;21.90;99.90
56240;DHT22;42154;51.992;5.896;2023-10-09T12:41:48;21.90;99.90
56240;DHT22;42154;51.992;5.896;2023-10-09T12:44:14;21.90;99.90
56240;DHT22;42154;51.992;5.896;2023-10-09T12:46:45;21.80;99.90
56240;DHT22;42154;51.992;5.896;2023-10-09T12:49:21;21.80;99.90
56240;DHT22;42154;51.992;5.896;2023-10-09T12:51:54;21.70;99.90
56240;DHT22;42154;51.992;5.896;2023-10-09T12:54:20;21.70;99.90
56240;DHT22;42154;51.992;5.896;2023-10-09T12:56:46;21.70;99.90
56240;DHT22;42154;51.992;5.896;2023-10-09T12:59:14;21.70;99.90
56240;DHT22;42154;51.992;5.896;2023-10-09T13:01:41;21.60;99.90
56240;DHT22;42154;51.992;5.896;2023-10-09T13:04:14;21.60;99.90
56240;DHT22;42154;51.992;5.896;2023-10-09T13:06:43;21.60;99.90
56240;DHT22;42154;51.992;5.896;2023-10-09T13:09:10;21.60;99.90
56240;DHT22;42154;51.992;5.896;2023-10-09T13:11:36;21.60;99.90
56240;DHT22;42154;51.992;5.896;2023-10-09T13:14:03;21.60;99.90
56240;DHT22;42154;51.992;5.896;2023-10-09T13:16:37;21.60;99.90
56240;DHT22;42154;51.992;5.896;2023-10-09T13:19:03;21.60;99.90
56240;DHT22;42154;51.992;5.896;2023-10-09T13:21:35;21.50;99.90
56240;DHT22;42154;51.992;5.896;2023-10-09T13:24:05;21.50;99.90
56240;DHT22;42154;51.992;5.896;2023-10-09T13:26:31;21.40;99.90
56240;DHT22;42154;51.992;5.896;2023-10-09T13:28:58;21.40;99.90
56240;DHT22;42154;51.992;5.896;2023-10-09T13:31:25;21.40;99.90
56240;DHT22;42154;51.992;5.896;2023-10-09T13:33:55;21.40;99.90
56240;DHT22;42154;51.992;5.896;2023-10-09T13:36:27;21.40;99.90
56240;DHT22;42154;51.992;5.896;2023-10-09T13:38:59;21.40;99.90
56240;DHT22;42154;51.992;5.896;2023-10-09T13:41:48;21.40;99.90
56240;DHT22;42154;51.992;5.896;2023-10-09T13:44:15;21.30;99.90
56240;DHT22;42154;51.992;5.896;2023-10-09T13:46:41;21.40;99.90
56240;DHT22;42154;51.992;5.896;2023-10-09T13:49:10;21.30;99.90
56240;DHT22;42154;51.992;5.896;2023-10-09T13:51:43;21.30;99.90
56240;DHT22;42154;51.992;5.896;2023-10-09T13:54:12;21.30;99.90
56240;DHT22;42154;51.992;5.896;2023-10-09T13:56:54;21.30;99.90
56240;DHT22;42154;51.992;5.896;2023-10-09T13:59:21;21.30;99.90
56240;DHT22;42154;51.992;5.896;2023-10-09T14:01:48;21.30;99.90
56240;DHT22;42154;51.992;5.896;2023-10-09T14:04:15;21.40;99.90
56240;DHT22;42154;51.992;5.896;2023-10-09T14:06:44;21.30;99.90
56240;DHT22;42154;51.992;5.896;2023-10-09T14:09:10;21.30;99.90
56240;DHT22;42154;51.992;5.896;2023-10-09T14:11:55;21.40;99.90
56240;DHT22;42154;51.992;5.896;2023-10-09T14:14:35;21.40;99.90
56240;DHT22;42154;51.992;5.896;2023-10-09T14:17:09;21.30;99.90
56240;DHT22;42154;51.992;5.896;2023-10-09T14:19:42;21.20;99.90
56240;DHT22;42154;51.992;5.896;2023-10-09T14:22:17;21.20;99.90
56240;DHT22;42154;51.992;5.896;2023-10-09T14:24:47;21.20;99.90
56240;DHT22;42154;51.992;5.896;2023-10-09T14:27:15;21.20;99.90
56240;DHT22;42154;51.992;5.896;2023-10-09T14:29:48;21.20;99.90
56240;DHT22;42154;51.992;5.896;2023-10-09T14:32:14;21.30;99.90
56240;DHT22;42154;51.992;5.896;2023-10-09T14:34:41;21.30;99.90
56240;DHT22;42154;51.992;5.896;2023-10-09T14:37:30;21.30;99.90
56240;DHT22;42154;51.992;5.896;2023-10-09T14:39:57;21.30;99.90
56240;DHT22;42154;51.992;5.896;2023-10-09T14:42:24;21.40;99.90
56240;DHT22;42154;51.992;5.896;2023-10-09T14:44:53;21.30;99.90
56240;DHT22;42154;51.992;5.896;2023-10-09T14:47:18;21.30;99.90
56240;DHT22;42154;51.992;5.896;2023-10-09T14:49:48;21.30;99.90
56240;DHT22;42154;51.992;5.896;2023-10-09T14:52:14;21.30;99.90
56240;DHT22;42154;51.992;5.896;2023-10-09T14:54:44;21.30;99.90
56240;DHT22;42154;51.992;5.896;2023-10-09T14:57:14;21.30;99.90
56240;DHT22;42154;51.992;5.896;2023-10-09T14:59:40;21.30;99.90
56240;DHT22;42154;51.992;5.896;2023-10-09T15:02:08;21.30;99.90
56240;DHT22;42154;51.992;5.896;2023-10-09T15:04:34;21.20;99.90
56240;DHT22;42154;51.992;5.896;2023-10-09T15:07:03;21.20;99.90
56240;DHT22;42154;51.992;5.896;2023-10-09T15:09:33;21.20;99.90
56240;DHT22;42154;51.992;5.896;2023-10-09T15:12:00;21.10;99.90
56240;DHT22;42154;51.992;5.896;2023-10-09T15:14:26;21.20;99.90
56240;DHT22;42154;51.992;5.896;2023-10-09T15:16:52;21.20;99.90
56240;DHT22;42154;51.992;5.896;2023-10-09T15:19:18;21.20;99.90
56240;DHT22;42154;51.992;5.896;2023-10-09T15:21:43;21.30;99.90
56240;DHT22;42154;51.992;5.896;2023-10-09T15:24:10;21.30;99.90
56240;DHT22;42154;51.992;5.896;2023-10-09T15:26:48;21.20;99.90
56240;DHT22;42154;51.992;5.896;2023-10-09T15:29:26;21.20;99.90
56240;DHT22;42154;51.992;5.896;2023-10-09T15:31:59;21.20;99.90
56240;DHT22;42154;51.992;5.896;2023-10-09T15:34:36;21.20;99.90
56240;DHT22;42154;51.992;5.896;2023-10-09T15:37:02;21.30;99.90
56240;DHT22;42154;51.992;5.896;2023-10-09T15:39:29;21.20;99.90
56240;DHT22;42154;51.992;5.896;2023-10-09T15:41:56;21.10;99.90
56240;DHT22;42154;51.992;5.896;2023-10-09T15:44:21;21.00;99.90
56240;DHT22;42154;51.992;5.896;2023-10-09T15:46:51;21.00;99.90
56240;DHT22;42154;51.992;5.896;2023-10-09T15:49:22;21.00;99.90
56240;DHT22;42154;51.992;5.896;2023-10-09T15:51:48;20.90;99.90
56240;DHT22;42154;51.992;5.896;2023-10-09T15:54:14;20.90;99.90
56240;DHT22;42154;51.992;5.896;2023-10-09T15:56:45;20.90;99.90
56240;DHT22;42154;51.992;5.896;2023-10-09T15:59:11;20.80;99.90
56240;DHT22;42154;51.992;5.896;2023-10-09T16:01:37;20.80;99.90
56240;DHT22;42154;51.992;5.896;2023-10-09T16:04:09;20.70;99.90
56240;DHT22;42154;51.992;5.896;2023-10-09T16:06:37;20.70;99.90
56240;DHT22;42154;51.992;5.896;2023-10-09T16:09:05;20.70;99.90
56240;DHT22;42154;51.992;5.896;2023-10-09T16:11:32;20.60;99.90
56240;DHT22;42154;51.992;5.896;2023-10-09T16:13:59;20.60;99.90
56240;DHT22;42154;51.992;5.896;2023-10-09T16:16:29;20.50;99.90
56240;DHT22;42154;51.992;5.896;2023-10-09T16:18:56;20.50;99.90
56240;DHT22;42154;51.992;5.896;2023-10-09T16:21:24;20.50;99.90
56240;DHT22;42154;51.992;5.896;2023-10-09T16:23:53;20.50;99.90
56240;DHT22;42154;51.992;5.896;2023-10-09T16:26:24;20.50;99.90
56240;DHT22;42154;51.992;5.896;2023-10-09T16:28:51;20.50;99.90
56240;DHT22;42154;51.992;5.896;2023-10-09T16:31:20;20.40;99.90
56240;DHT22;42154;51.992;5.896;2023-10-09T16:33:46;20.40;99.90
56240;DHT22;42154;51.992;5.896;2023-10-09T16:36:16;20.40;99.90